• Join FlightAware (Why Join?)
  • Login
  • US Flag 
03:11AM EDT


 

Airport Tracker/Info


-or-


 

Live Flight TrackerFlight Track Log ✈ VH-SPN ✈ 14-Jun-2013 ✈ YPJT / JAD - YNTM

Flight Track Log - Related Links

Times and Time Zones

All times are in EDT time to prevent confusion due to time zone crossing. See the VH-SPN flight status page for this flight to view local times or setup timezone preferences in your user account.

Time Position Orientation Groundspeed Altitude Reporting Facility
EDT Latitude Longitude Course Direction KTS MPH feet Rate Location/Type
09:59PM -32.1495 116.1056 89° East 104 120 2,900  Level Aus ATC (RADAR)
10:00PM -32.1490 116.1409 89° East 104 120 3,300 360 Climbing Aus ATC (RADAR)
10:01PM -32.1304 116.1612 43° Northeast 101 116 3,700 180 Climbing Aus ATC (RADAR)
10:01PM -32.1149 116.1717 30° Northeast 111 128 3,600 -120 Descending Aus ATC (RADAR)
10:02PM -32.0878 116.1888 28° Northeast 124 143 3,600 -120 Level Aus ATC (RADAR)
10:03PM -32.0662 116.1992 22° Northeast 127 146 3,500 60 Descending Aus ATC (RADAR)
10:04PM -32.0364 116.2088 15° North 120 138 3,700 60 Climbing Aus ATC (RADAR)
10:05PM -31.9976 116.2331 28° Northeast 120 138 3,700 -60 Level Aus ATC (RADAR)
10:06PM -31.9839 116.2495 46° Northeast 120 138 3,600 -120 Descending Aus ATC (RADAR)
10:06PM -31.9785 116.2576 52° Northeast 122 140 3,600 60 Level Aus ATC (RADAR)
10:07PM -31.9658 116.2757 51° Northeast 121 139 3,700  Climbing Aus ATC (RADAR)
10:07PM -31.9451 116.3046 50° Northeast 125 144 3,600 -120 Descending Aus ATC (RADAR)
10:08PM -31.9370 116.3143 45° Northeast 125 144 3,600  Level Aus ATC (RADAR)
10:10PM -31.8662 116.3197 North 3,500 -60 Descending Aus ATC (Calculated)
10:11PM -31.8308 116.3223 North 3,500  Level Aus ATC (Calculated)
10:12PM -31.7954 116.3250 158° South -6,420 Descending Aus ATC (Calculated)
10:14PM -31.8268 116.3400 158° South  Level FlightAware Approximate
10:15PM -31.8436 116.3480 158° South  Level FlightAware Approximate
10:16PM -31.8604 116.3561 158° South  Level FlightAware Approximate
10:17PM -31.8568 116.3544 338° Northwest  Level FlightAware Approximate
10:18PM -31.8400 116.3464 338° Northwest  Level FlightAware Approximate
10:19PM -31.8232 116.3383 338° Northwest  Level FlightAware Approximate
10:20PM -31.8064 116.3303 338° Northwest  Level FlightAware Approximate
10:20PM -31.7107 116.5049 241° Southwest  Level Aus ATC (Calculated)
10:21PM -31.7924 116.3314 61° Northeast  Level FlightAware Approximate
10:22PM -31.7836 116.3501 61° Northeast  Level FlightAware Approximate
10:22PM -31.7107 116.5049 61° Northeast  Level Aus ATC (Calculated)
10:23PM -31.6893 116.5502 61° Northeast  Level FlightAware Approximate
10:24PM -31.6995 116.5285 61° Northeast  Level FlightAware Approximate
10:25PM -31.6907 116.5472 61° Northeast  Level FlightAware Approximate
10:26PM -31.6819 116.5658 61° Northeast  Level FlightAware Approximate
10:27PM -31.6731 116.5844 61° Northeast  Level FlightAware Approximate
10:28PM -31.6643 116.6031 61° Northeast  Level FlightAware Approximate
10:29PM -31.6555 116.6217 61° Northeast  Level FlightAware Approximate
10:29PM -31.6257 116.6845 241° Southwest  Level Aus ATC (Calculated)
10:30PM -31.6467 116.6403 61° Northeast  Level FlightAware Approximate
10:31PM -31.6246 116.6833 North  Level Estimated
10:32PM -31.6246 116.6833 135° Southeast  Level Estimated
10:33PM -31.6246 116.6833 135° Southeast  Level Estimated
10:34PM -31.6246 116.6833 135° Southeast  Level Estimated
10:35PM -31.6246 116.6833 135° Southeast  Level Estimated
10:36PM -31.6246 116.6833 135° Southeast  Level Estimated
10:37PM -31.6246 116.6833 135° Southeast  Level Estimated
10:38PM -31.6257 116.6845 61° Northeast  Level FlightAware Approximate